Time;durP1;ratioP1;P1;durP2;ratioP2;P2;SDS_P1;SDS_P2;PMS_P1;PMS_P2;Temp;Humidity;BMP_temperature;BMP_pressure;BME280_temperature;BME280_humidity;BME280_pressure;Samples;Min_cycle;Max_cycle;Signal;HPM_P1;HPM_P2
2023/06/07 03:02:30;;;;;;;25.02;9.43;;;10.50;99.90;;;;;;5018876;23;20051;-76
2023/06/07 03:04:56;;;;;;;20.60;8.05;;;10.60;99.90;;;;;;4940716;29;20110;-75
2023/06/07 03:07:22;;;;;;;16.83;8.68;;;10.60;99.90;;;;;;4955811;29;20039;-76
2023/06/07 03:09:47;;;;;;;23.52;9.13;;;10.60;99.90;;;;;;4956501;28;20034;-76
2023/06/07 03:12:13;;;;;;;21.35;8.52;;;10.60;99.90;;;;;;4956354;29;20055;-76
2023/06/07 03:14:41;;;;;;;16.52;7.03;;;10.60;99.90;;;;;;4954896;29;20035;-76
2023/06/07 03:17:08;;;;;;;23.30;8.45;;;10.70;99.90;;;;;;4957771;29;20047;-76
2023/06/07 03:19:35;;;;;;;20.38;8.07;;;10.70;99.90;;;;;;4956032;29;20526;-76
2023/06/07 03:22:02;;;;;;;18.73;8.18;;;10.80;99.90;;;;;;4954713;29;20395;-75
2023/06/07 03:24:30;;;;;;;19.95;7.80;;;10.80;99.90;;;;;;4955925;29;20123;-76
2023/06/07 03:26:57;;;;;;;16.70;7.85;;;10.80;99.90;;;;;;4957093;29;20043;-77
2023/06/07 03:29:23;;;;;;;19.50;7.00;;;10.80;99.90;;;;;;4955984;29;20058;-76
2023/06/07 03:31:48;;;;;;;22.10;8.02;;;10.90;99.90;;;;;;4956963;28;20391;-74
2023/06/07 03:34:14;;;;;;;18.58;8.10;;;10.90;99.90;;;;;;4955741;29;20061;-77
2023/06/07 03:36:40;;;;;;;17.73;7.38;;;10.90;99.90;;;;;;4956922;29;20082;-75
2023/06/07 03:39:06;;;;;;;24.63;7.63;;;11.00;99.90;;;;;;4956681;29;20044;-74
2023/06/07 03:41:31;;;;;;;16.20;7.97;;;11.00;99.90;;;;;;4955391;29;20054;-76
2023/06/07 03:43:57;;;;;;;20.20;7.85;;;11.00;99.90;;;;;;4955481;29;20078;-76
2023/06/07 03:46:23;;;;;;;20.70;7.13;;;11.00;99.90;;;;;;4955717;29;20043;-76
2023/06/07 03:48:48;;;;;;;14.27;6.60;;;11.10;99.90;;;;;;4955762;29;20046;-75
2023/06/07 03:51:14;;;;;;;18.75;7.22;;;11.10;99.90;;;;;;4954311;29;20499;-76
2023/06/07 03:53:40;;;;;;;21.73;7.05;;;11.10;99.90;;;;;;4956532;29;20042;-76
2023/06/07 03:56:06;;;;;;;19.75;7.10;;;11.10;99.90;;;;;;4956743;28;20368;-76
2023/06/07 03:58:31;;;;;;;20.23;6.65;;;11.20;99.90;;;;;;4955711;29;20539;-76
2023/06/07 04:00:57;;;;;;;19.77;6.22;;;11.20;99.90;;;;;;4954862;29;20065;-76
2023/06/07 04:03:27;;;;;;;16.50;5.72;;;11.30;99.90;;;;;;4955543;29;20039;-76
2023/06/07 04:05:53;;;;;;;15.50;6.05;;;11.30;99.90;;;;;;4954998;29;20047;-76
2023/06/07 04:08:19;;;;;;;19.75;6.22;;;11.30;99.90;;;;;;4939004;29;20043;-76
2023/06/07 04:10:45;;;;;;;19.60;5.85;;;11.40;99.90;;;;;;4954379;28;20524;-76
2023/06/07 04:13:11;;;;;;;19.42;5.65;;;11.40;99.90;;;;;;4955878;28;20042;-76
2023/06/07 04:15:37;;;;;;;19.63;6.35;;;11.40;99.90;;;;;;4954846;29;20046;-76
2023/06/07 04:18:02;;;;;;;19.35;6.50;;;11.50;99.90;;;;;;4956078;29;20440;-77
2023/06/07 04:20:28;;;;;;;22.10;7.60;;;11.50;99.90;;;;;;4938370;29;20090;-75
2023/06/07 04:22:54;;;;;;;16.10;6.30;;;11.50;99.90;;;;;;4954753;29;20109;-76
2023/06/07 04:25:21;;;;;;;18.80;5.80;;;11.60;99.90;;;;;;4956423;28;20039;-75
2023/06/07 04:27:48;;;;;;;17.38;6.10;;;11.60;99.90;;;;;;4955316;29;20039;-76
2023/06/07 04:30:20;;;;;;;17.70;5.97;;;11.60;99.90;;;;;;4955416;29;20093;-76
2023/06/07 04:32:46;;;;;;;14.63;5.93;;;11.60;99.90;;;;;;4955898;28;20043;-77
2023/06/07 04:35:14;;;;;;;16.52;5.70;;;11.60;99.90;;;;;;4954967;29;20050;-75
2023/06/07 04:37:45;;;;;;;18.20;5.78;;;11.70;99.90;;;;;;4954346;29;20051;-75
2023/06/07 04:40:11;;;;;;;21.13;6.57;;;11.70;99.90;;;;;;4956151;28;20082;-75
2023/06/07 04:42:40;;;;;;;16.45;6.10;;;11.80;99.90;;;;;;4954919;29;20182;-76
2023/06/07 04:45:07;;;;;;;17.45;5.93;;;11.80;99.90;;;;;;4955902;29;20063;-75
2023/06/07 04:47:32;;;;;;;20.02;5.97;;;11.80;99.90;;;;;;4955512;28;20487;-76
2023/06/07 04:50:00;;;;;;;16.92;5.22;;;11.80;99.90;;;;;;4954148;29;20047;-75
2023/06/07 04:52:26;;;;;;;15.50;5.25;;;11.90;99.90;;;;;;4954816;29;20039;-76
2023/06/07 04:54:53;;;;;;;15.73;4.75;;;11.90;99.90;;;;;;4954266;29;20043;-75
2023/06/07 04:57:22;;;;;;;19.77;6.05;;;11.90;99.90;;;;;;4956079;28;20050;-76
2023/06/07 04:59:49;;;;;;;18.70;5.90;;;12.00;99.90;;;;;;4954025;29;20050;-76
2023/06/07 05:02:15;;;;;;;23.73;5.85;;;12.00;99.90;;;;;;4955211;28;20122;-76
2023/06/07 05:04:41;;;;;;;17.67;4.55;;;12.10;99.90;;;;;;4970870;28;20474;-76
2023/06/07 05:07:07;;;;;;;15.98;4.25;;;12.10;99.90;;;;;;4954119;28;20234;-77
2023/06/07 05:09:33;;;;;;;16.45;5.47;;;12.20;99.90;;;;;;4954779;28;20079;-76
2023/06/07 05:11:58;;;;;;;15.40;5.55;;;12.20;99.90;;;;;;4955113;28;20043;-75
2023/06/07 05:14:25;;;;;;;15.18;5.57;;;12.20;99.90;;;;;;4954428;29;20047;-75
2023/06/07 05:16:51;;;;;;;17.33;5.28;;;12.30;99.90;;;;;;4955740;28;20086;-74
2023/06/07 05:19:17;;;;;;;16.63;5.53;;;12.30;99.90;;;;;;4955408;29;20123;-76
2023/06/07 05:21:42;;;;;;;20.35;5.60;;;12.30;99.90;;;;;;4956886;28;20503;-77
2023/06/07 05:24:08;;;;;;;17.83;5.82;;;12.40;99.90;;;;;;4958506;29;20102;-75
2023/06/07 05:26:34;;;;;;;21.38;5.90;;;12.40;99.90;;;;;;4958338;29;20039;-76
2023/06/07 05:29:00;;;;;;;13.55;4.93;;;12.40;99.90;;;;;;4958381;29;20122;-78
2023/06/07 05:31:29;;;;;;;19.67;5.38;;;12.40;99.90;;;;;;4958882;29;20081;-77
2023/06/07 05:33:54;;;;;;;16.42;4.90;;;12.40;99.90;;;;;;4958114;29;20109;-75
2023/06/07 05:36:20;;;;;;;15.73;5.38;;;12.50;99.90;;;;;;4959232;28;20039;-76
2023/06/07 05:38:46;;;;;;;21.48;5.47;;;12.50;99.90;;;;;;4959536;28;20475;-77
2023/06/07 05:41:13;;;;;;;16.98;5.13;;;12.60;99.90;;;;;;4959127;28;20048;-75
2023/06/07 05:43:39;;;;;;;14.88;4.90;;;12.60;99.90;;;;;;4958862;28;20086;-75
2023/06/07 05:46:05;;;;;;;16.25;5.22;;;12.60;99.90;;;;;;4957253;29;20039;-76
2023/06/07 05:48:30;;;;;;;18.55;5.25;;;12.60;99.90;;;;;;4957402;29;20062;-77
2023/06/07 05:50:57;;;;;;;14.35;4.85;;;12.70;99.90;;;;;;4958661;28;20102;-77
2023/06/07 05:53:23;;;;;;;14.75;4.95;;;12.70;99.90;;;;;;4958458;28;20043;-76
2023/06/07 05:55:49;;;;;;;14.20;5.00;;;12.70;99.90;;;;;;4957498;29;20084;-75
2023/06/07 05:58:14;;;;;;;19.27;4.82;;;12.80;99.90;;;;;;4957263;29;20479;-77
2023/06/07 06:00:47;;;;;;;15.77;5.28;;;12.80;99.90;;;;;;4958445;28;20054;-75
2023/06/07 06:03:16;;;;;;;19.40;5.30;;;12.90;99.90;;;;;;4958319;28;20558;-75
2023/06/07 06:05:42;;;;;;;16.60;5.07;;;13.00;99.90;;;;;;4958543;28;20119;-76
2023/06/07 06:08:07;;;;;;;13.35;5.03;;;13.00;99.90;;;;;;4958845;28;20040;-75
2023/06/07 06:10:33;;;;;;;15.10;4.90;;;13.00;99.90;;;;;;4958657;28;20062;-76
2023/06/07 06:12:59;;;;;;;13.57;4.80;;;13.10;99.90;;;;;;4975800;28;20379;-75
2023/06/07 06:15:24;;;;;;;17.08;4.60;;;13.10;99.90;;;;;;4975916;28;20058;-75
2023/06/07 06:17:54;;;;;;;19.08;4.68;;;13.10;99.90;;;;;;4976186;28;20043;-75
2023/06/07 06:20:20;;;;;;;12.20;4.35;;;13.20;99.90;;;;;;4970937;28;20391;-76
2023/06/07 06:22:46;;;;;;;15.52;4.57;;;13.30;99.90;;;;;;4956609;28;20044;-75
2023/06/07 06:25:13;;;;;;;15.00;4.53;;;13.30;99.90;;;;;;4954888;29;20066;-75
2023/06/07 06:27:40;;;;;;;16.77;4.40;;;13.40;99.90;;;;;;4956061;28;20040;-77
2023/06/07 06:30:06;;;;;;;14.23;4.70;;;13.40;99.90;;;;;;4955978;29;20094;-76
2023/06/07 06:32:32;;;;;;;17.45;4.78;;;13.40;99.90;;;;;;4939406;29;20039;-76
2023/06/07 06:34:58;;;;;;;14.38;4.30;;;13.50;99.90;;;;;;4955206;29;20039;-77
2023/06/07 06:37:23;;;;;;;17.63;4.70;;;13.50;99.90;;;;;;4955662;29;20047;-77
2023/06/07 06:39:51;;;;;;;17.48;4.60;;;13.50;99.90;;;;;;4956021;29;20402;-76
2023/06/07 06:42:17;;;;;;;15.65;4.78;;;13.60;99.90;;;;;;4957578;28;20066;-76
2023/06/07 06:44:43;;;;;;;14.45;5.38;;;13.60;99.90;;;;;;4956619;29;20043;-76
2023/06/07 06:47:09;;;;;;;16.67;4.95;;;13.60;99.90;;;;;;4956472;29;20483;-78
2023/06/07 06:49:35;;;;;;;18.42;4.75;;;13.60;99.90;;;;;;4958034;28;20448;-79
2023/06/07 06:52:00;;;;;;;15.70;4.57;;;13.60;99.90;;;;;;4956457;29;20135;-76
2023/06/07 06:54:26;;;;;;;16.38;4.28;;;13.60;99.90;;;;;;4956461;29;20049;-78
2023/06/07 06:56:52;;;;;;;12.10;4.07;;;13.60;99.90;;;;;;4956479;29;20078;-76
2023/06/07 06:59:17;;;;;;;14.73;4.13;;;13.60;99.90;;;;;;4955418;29;20082;-75
2023/06/07 07:01:47;;;;;;;15.40;4.38;;;13.60;99.90;;;;;;4957087;28;20058;-76
2023/06/07 07:04:17;;;;;;;14.93;4.03;;;13.60;99.90;;;;;;4957846;28;20118;-76
2023/06/07 07:06:43;;;;;;;12.77;3.90;;;13.70;99.90;;;;;;4956052;29;20043;-76
2023/06/07 07:09:09;;;;;;;10.63;3.40;;;13.80;99.90;;;;;;4956355;29;20538;-77
2023/06/07 07:11:36;;;;;;;18.80;4.18;;;13.90;99.90;;;;;;4955864;29;20050;-76
2023/06/07 07:14:02;;;;;;;14.75;3.80;;;14.00;99.90;;;;;;4957812;28;20046;-77
2023/06/07 07:16:30;;;;;;;16.75;4.95;;;14.10;99.90;;;;;;4957822;28;20503;-75
2023/06/07 07:18:56;;;;;;;14.35;4.03;;;14.10;99.90;;;;;;4956338;29;20122;-76
2023/06/07 07:21:21;;;;;;;17.55;4.10;;;14.10;99.90;;;;;;4957297;28;20075;-76
2023/06/07 07:23:47;;;;;;;14.93;4.85;;;14.10;99.90;;;;;;4955720;29;20038;-75
2023/06/07 07:26:13;;;;;;;14.80;4.05;;;14.00;99.90;;;;;;4939906;29;20043;-76
2023/06/07 07:28:39;;;;;;;12.18;3.80;;;14.00;99.90;;;;;;4955808;29;20091;-76
2023/06/07 07:31:04;;;;;;;17.15;4.45;;;13.90;99.90;;;;;;4956985;28;20051;-75
2023/06/07 07:33:30;;;;;;;12.68;3.97;;;14.00;99.90;;;;;;4956943;28;20043;-76
2023/06/07 07:35:55;;;;;;;16.85;3.78;;;14.00;99.90;;;;;;4956869;28;20035;-75
2023/06/07 07:38:21;;;;;;;13.20;3.80;;;14.10;99.90;;;;;;4955631;29;20047;-75
2023/06/07 07:40:47;;;;;;;15.13;4.05;;;14.10;99.90;;;;;;4956399;28;20443;-76
2023/06/07 07:43:13;;;;;;;14.63;3.90;;;14.20;99.90;;;;;;4955330;29;20054;-76
2023/06/07 07:45:38;;;;;;;15.88;4.40;;;14.20;99.90;;;;;;4955391;28;20044;-76
2023/06/07 07:48:04;;;;;;;14.15;4.10;;;14.20;99.90;;;;;;4955017;29;20221;-77
2023/06/07 07:50:31;;;;;;;14.18;4.13;;;14.20;99.90;;;;;;4954288;29;20109;-75
2023/06/07 07:52:57;;;;;;;18.67;4.95;;;14.30;99.90;;;;;;4954569;28;20186;-75
2023/06/07 07:55:23;;;;;;;12.90;4.40;;;14.30;99.90;;;;;;4954536;28;20527;-77
2023/06/07 07:57:50;;;;;;;14.57;4.75;;;14.40;99.90;;;;;;4953051;29;20491;-75
2023/06/07 08:00:17;;;;;;;15.10;4.20;;;14.50;99.90;;;;;;4954360;28;20050;-75
2023/06/07 08:02:43;;;;;;;17.17;4.25;;;14.60;99.90;;;;;;4953463;29;20387;-76
2023/06/07 08:05:09;;;;;;;15.30;4.10;;;14.70;99.90;;;;;;4955028;28;20042;-76
2023/06/07 08:07:34;;;;;;;15.73;4.25;;;14.80;99.90;;;;;;4955054;29;20082;-76
2023/06/07 08:10:00;;;;;;;11.48;4.15;;;15.00;99.90;;;;;;4955248;29;20043;-75
2023/06/07 08:12:26;;;;;;;12.98;4.25;;;15.00;99.90;;;;;;4956037;28;20376;-76
2023/06/07 08:14:52;;;;;;;9.02;3.83;;;15.10;99.90;;;;;;4938905;29;20043;-75
2023/06/07 08:17:19;;;;;;;10.82;4.03;;;15.10;99.90;;;;;;4956855;28;20147;-75
2023/06/07 08:19:46;;;;;;;17.00;4.97;;;15.10;99.90;;;;;;4955158;29;20368;-75
2023/06/07 08:22:12;;;;;;;15.52;4.63;;;15.20;99.90;;;;;;4956615;28;20043;-76
2023/06/07 08:24:37;;;;;;;13.50;3.95;;;15.20;99.90;;;;;;4956114;28;20501;-75
2023/06/07 08:27:03;;;;;;;14.38;4.28;;;15.20;99.90;;;;;;4956101;28;20050;-75
2023/06/07 08:29:29;;;;;;;13.93;3.83;;;15.30;99.90;;;;;;4956499;28;20069;-75
2023/06/07 08:31:56;;;;;;;12.02;4.25;;;15.40;99.90;;;;;;4956452;28;20047;-75
2023/06/07 08:34:27;;;;;;;14.38;5.25;;;15.50;99.90;;;;;;4954907;29;20078;-76
2023/06/07 08:36:53;;;;;;;15.77;4.97;;;15.60;99.90;;;;;;4955832;28;20050;-75
2023/06/07 08:39:19;;;;;;;10.32;4.30;;;15.80;99.90;;;;;;4956254;28;20086;-75
2023/06/07 08:41:44;;;;;;;19.85;4.60;;;15.90;99.90;;;;;;4954344;29;20047;-76
2023/06/07 08:44:10;;;;;;;9.98;3.95;;;15.90;99.90;;;;;;4956030;28;20042;-75
2023/06/07 08:46:37;;;;;;;14.05;3.85;;;16.00;99.90;;;;;;4955808;28;20054;-76
2023/06/07 08:49:05;;;;;;;11.40;4.15;;;16.10;99.90;;;;;;4955704;28;20039;-76
2023/06/07 08:51:36;;;;;;;14.18;4.07;;;16.20;99.90;;;;;;4954338;29;20050;-76
2023/06/07 08:54:03;;;;;;;14.00;4.57;;;16.30;99.90;;;;;;4955896;28;20043;-77
2023/06/07 08:56:31;;;;;;;13.27;4.00;;;16.50;99.90;;;;;;4953986;28;20043;-77
2023/06/07 08:58:57;;;;;;;14.40;4.53;;;16.60;99.90;;;;;;4955796;28;20039;-76
2023/06/07 09:01:23;;;;;;;14.70;4.65;;;16.70;99.90;;;;;;4954386;29;20062;-75
2023/06/07 09:03:51;;;;;;;12.80;4.00;;;16.80;99.90;;;;;;4955658;28;20039;-76
2023/06/07 09:06:18;;;;;;;14.52;4.07;;;16.90;99.90;;;;;;4954188;29;20036;-76
2023/06/07 09:08:43;;;;;;;9.57;3.80;;;17.00;99.90;;;;;;4956287;28;20045;-76
2023/06/07 09:11:09;;;;;;;13.07;4.07;;;17.10;99.90;;;;;;4953955;29;20491;-76
2023/06/07 09:13:36;;;;;;;12.80;4.22;;;17.20;99.90;;;;;;4955272;28;20043;-77
2023/06/07 09:16:05;;;;;;;15.90;4.20;;;17.30;99.90;;;;;;4955524;28;20122;-76
2023/06/07 09:18:45;;;;;;;12.95;4.45;;;17.40;99.90;;;;;;4953828;28;20146;-76
2023/06/07 09:21:23;;;;;;;11.75;4.40;;;17.60;99.90;;;;;;4953662;29;20039;-75
2023/06/07 09:23:51;;;;;;;12.98;4.55;;;17.80;99.90;;;;;;4955087;28;20031;-76
2023/06/07 09:26:18;;;;;;;15.70;4.60;;;17.90;99.90;;;;;;4955272;28;20046;-76
2023/06/07 09:28:47;;;;;;;12.40;4.82;;;18.00;99.90;;;;;;4954162;28;20474;-76
2023/06/07 09:31:30;;;;;;;15.15;5.18;;;18.00;99.90;;;;;;4954117;29;20078;-76
2023/06/07 09:33:56;;;;;;;9.57;3.85;;;18.20;99.90;;;;;;4954141;29;20398;-76
2023/06/07 09:36:22;;;;;;;12.90;4.57;;;18.20;99.90;;;;;;4954030;29;20505;-76
2023/06/07 09:38:48;;;;;;;10.98;4.35;;;18.40;99.90;;;;;;4953748;29;20077;-76
2023/06/07 09:41:13;;;;;;;9.77;3.72;;;18.40;99.90;;;;;;4954232;29;20055;-76
2023/06/07 09:43:46;;;;;;;13.48;4.10;;;18.60;99.90;;;;;;4954687;28;20039;-76
2023/06/07 09:46:12;;;;;;;14.25;4.20;;;18.70;99.90;;;;;;4953577;29;20047;-76
2023/06/07 09:48:48;;;;;;;8.98;4.28;;;18.70;99.90;;;;;;4954951;28;20510;-77
2023/06/07 09:51:15;;;;;;;9.60;3.78;;;18.90;99.90;;;;;;4953560;29;20055;-74
2023/06/07 09:53:57;;;;;;;11.82;4.18;;;19.00;99.90;;;;;;4953057;29;20187;-76
2023/06/07 09:56:23;;;;;;;16.83;4.53;;;19.10;99.90;;;;;;4953991;28;20394;-75
2023/06/07 09:59:05;;;;;;;12.52;4.57;;;19.20;99.90;;;;;;4953856;28;20050;-78
2023/06/07 10:01:37;;;;;;;13.48;4.80;;;19.30;99.90;;;;;;4952613;28;20047;-76
2023/06/07 10:04:04;;;;;;;15.30;4.00;;;19.40;99.90;;;;;;4952963;29;20047;-75
2023/06/07 10:06:34;;;;;;;13.45;4.30;;;19.60;99.90;;;;;;4954617;28;20123;-76
2023/06/07 10:09:03;;;;;;;14.15;3.90;;;19.80;99.90;;;;;;4956010;28;20479;-76
2023/06/07 10:11:34;;;;;;;10.23;4.10;;;19.80;99.90;;;;;;4958201;28;20050;-77
2023/06/07 10:14:06;;;;;;;9.93;4.10;;;19.90;99.90;;;;;;4958706;28;20046;-77
2023/06/07 10:16:36;;;;;;;7.97;4.07;;;20.00;99.90;;;;;;4956789;29;20054;-75
2023/06/07 10:19:17;;;;;;;11.98;4.03;;;20.10;99.90;;;;;;4958571;28;20082;-76
2023/06/07 10:21:49;;;;;;;10.88;4.05;;;20.20;99.90;;;;;;4940747;29;20047;-76
2023/06/07 10:24:24;;;;;;;9.55;4.85;;;20.30;99.90;;;;;;4958933;28;20527;-76
2023/06/07 10:27:17;;;;;;;10.07;4.22;;;20.40;99.90;;;;;;4957947;28;20054;-76
2023/06/07 10:29:57;;;;;;;13.38;4.95;;;20.50;99.90;;;;;;4955307;29;20055;-77
2023/06/07 10:32:27;;;;;;;13.55;3.60;;;20.70;99.90;;;;;;4956934;29;20413;-75
2023/06/07 10:34:55;;;;;;;12.05;4.18;;;20.70;99.90;;;;;;4956518;29;20071;-76
2023/06/07 10:37:21;;;;;;;10.77;3.92;;;20.80;99.90;;;;;;4956650;29;20090;-76
2023/06/07 10:39:47;;;;;;;9.32;3.92;;;21.00;99.90;;;;;;4940453;29;20075;-76
2023/06/07 10:42:13;;;;;;;9.90;4.18;;;21.10;99.90;;;;;;4956133;29;20403;-76
2023/06/07 10:44:40;;;;;;;11.98;4.10;;;21.20;99.90;;;;;;4956330;29;20043;-76
2023/06/07 10:47:29;;;;;;;10.10;3.65;;;21.40;99.90;;;;;;4956569;29;20081;-75
2023/06/07 10:49:54;;;;;;;9.27;3.40;;;21.50;99.90;;;;;;4940292;29;20102;-76
2023/06/07 10:52:21;;;;;;;12.48;3.53;;;21.50;99.90;;;;;;4956295;29;20450;-77
2023/06/07 10:54:47;;;;;;;12.20;4.50;;;21.50;99.90;;;;;;4957737;28;20043;-78
2023/06/07 10:57:12;;;;;;;10.93;3.75;;;21.50;99.90;;;;;;4956294;29;20528;-76
2023/06/07 10:59:39;;;;;;;10.27;3.70;;;21.60;99.90;;;;;;4956769;29;20049;-76
2023/06/07 11:02:26;;;;;;;12.60;3.88;;;21.70;99.90;;;;;;4955610;29;20057;-76
2023/06/07 11:04:59;;;;;;;11.38;3.72;;;21.80;99.90;;;;;;4957294;28;20071;-75
2023/06/07 11:07:35;;;;;;;7.10;3.70;;;21.90;99.90;;;;;;4957995;28;20090;-77
2023/06/07 11:10:07;;;;;;;9.25;3.78;;;22.00;99.90;;;;;;4956337;29;20086;-76
2023/06/07 11:12:35;;;;;;;10.48;3.88;;;22.00;99.90;;;;;;4956284;29;20057;-77
2023/06/07 11:15:35;;;;;;;10.13;4.10;;;22.20;99.90;;;;;;4957196;28;20043;-77
2023/06/07 11:18:04;;;;;;;13.73;4.00;;;22.20;99.90;;;;;;4957388;28;20039;-77
2023/06/07 11:20:39;;;;;;;12.82;4.10;;;22.20;99.90;;;;;;4955839;28;20043;-76
2023/06/07 11:23:21;;;;;;;12.27;4.10;;;22.30;99.90;;;;;;4957189;28;20098;-77
2023/06/07 11:25:48;;;;;;;10.18;3.35;;;22.40;99.90;;;;;;4955990;29;20058;-76
2023/06/07 11:28:13;;;;;;;10.98;3.80;;;22.60;99.90;;;;;;4957146;28;20039;-75
2023/06/07 11:30:43;;;;;;;7.60;4.00;;;22.70;99.90;;;;;;4955821;29;20053;-75
2023/06/07 11:33:15;;;;;;;12.77;3.50;;;22.70;99.90;;;;;;4957452;28;20039;-76
2023/06/07 11:35:42;;;;;;;8.85;4.35;;;22.70;99.90;;;;;;4955974;29;20047;-77
2023/06/07 11:38:08;;;;;;;10.07;3.90;;;22.90;99.90;;;;;;4955566;29;20047;-76
2023/06/07 11:40:33;;;;;;;10.07;3.90;;;23.00;99.90;;;;;;4955501;29;20410;-75
2023/06/07 11:42:59;;;;;;;10.43;4.45;;;23.10;99.90;;;;;;4955940;29;20047;-76
2023/06/07 11:45:25;;;;;;;11.75;4.85;;;23.10;99.90;;;;;;4939771;29;20430;-76
2023/06/07 11:47:55;;;;;;;10.77;4.63;;;23.10;99.90;;;;;;4956933;28;20035;-77
2023/06/07 11:50:23;;;;;;;10.48;4.47;;;23.20;99.90;;;;;;4957328;28;20055;-77
2023/06/07 11:52:49;;;;;;;12.45;4.35;;;23.20;99.90;;;;;;4957247;28;20042;-76
2023/06/07 11:55:16;;;;;;;10.25;4.38;;;23.30;99.90;;;;;;4956901;28;20043;-76
2023/06/07 11:57:44;;;;;;;10.73;4.40;;;23.40;99.90;;;;;;4955415;29;20089;-77
2023/06/07 12:00:14;;;;;;;10.80;4.40;;;23.40;99.90;;;;;;4939382;29;20098;-76
2023/06/07 12:02:41;;;;;;;13.40;4.82;;;23.40;99.90;;;;;;4957388;28;20047;-76
2023/06/07 12:05:11;;;;;;;9.77;3.75;;;23.50;99.90;;;;;;4956738;28;20039;-76
2023/06/07 12:07:41;;;;;;;8.30;4.35;;;23.50;99.90;;;;;;4956525;28;20070;-77
2023/06/07 12:10:07;;;;;;;9.20;4.18;;;23.60;99.90;;;;;;4955151;29;20050;-76
2023/06/07 12:12:37;;;;;;;12.93;4.25;;;23.60;99.90;;;;;;4956109;28;20459;-76
2023/06/07 12:15:04;;;;;;;7.75;4.10;;;23.70;99.90;;;;;;4956911;28;20051;-76
2023/06/07 12:17:35;;;;;;;12.85;4.05;;;23.80;99.90;;;;;;4955413;29;20075;-75
2023/06/07 12:20:11;;;;;;;9.48;3.88;;;23.90;99.90;;;;;;4957501;28;20087;-76
2023/06/07 12:22:37;;;;;;;13.52;4.45;;;24.00;99.90;;;;;;4940279;29;20619;-76
2023/06/07 12:25:09;;;;;;;10.32;4.47;;;24.10;99.90;;;;;;4957426;28;20046;-76
2023/06/07 12:27:37;;;;;;;12.25;5.13;;;24.10;99.90;;;;;;4956661;29;20043;-76
2023/06/07 12:30:11;;;;;;;12.43;5.07;;;24.10;99.90;;;;;;4955304;29;20043;-76
2023/06/07 12:32:37;;;;;;;10.52;4.75;;;24.00;99.90;;;;;;4954434;29;20039;-76
2023/06/07 12:35:07;;;;;;;11.18;4.68;;;23.90;99.90;;;;;;4954811;29;20089;-78
2023/06/07 12:37:36;;;;;;;11.98;5.93;;;23.80;99.90;;;;;;4956897;28;20054;-76
2023/06/07 12:40:07;;;;;;;10.80;4.95;;;23.70;99.90;;;;;;4956764;28;20039;-76
2023/06/07 12:42:34;;;;;;;10.82;5.20;;;23.60;99.90;;;;;;4956198;28;20050;-77
2023/06/07 12:44:59;;;;;;;11.88;5.25;;;23.50;99.90;;;;;;4956138;28;20494;-75
2023/06/07 12:47:25;;;;;;;12.13;5.38;;;23.40;99.90;;;;;;4954827;29;20045;-77
2023/06/07 12:49:51;;;;;;;11.60;5.25;;;23.30;99.90;;;;;;4938973;29;20395;-76
2023/06/07 12:52:17;;;;;;;12.00;4.88;;;23.30;99.90;;;;;;4938872;29;20106;-77
2023/06/07 12:54:43;;;;;;;12.93;5.10;;;23.50;99.90;;;;;;4956228;28;20431;-75
2023/06/07 12:57:09;;;;;;;12.07;5.30;;;23.70;99.90;;;;;;4954971;29;20131;-76
2023/06/07 12:59:35;;;;;;;14.45;4.78;;;23.90;99.90;;;;;;4955957;28;20046;-76
2023/06/07 13:02:01;;;;;;;10.50;4.78;;;24.00;99.90;;;;;;4955480;28;20043;-76
2023/06/07 13:04:27;;;;;;;9.88;4.60;;;24.10;99.90;;;;;;4954576;29;20042;-77
2023/06/07 13:06:53;;;;;;;17.90;5.80;;;24.10;99.90;;;;;;4954850;29;20043;-76
2023/06/07 13:09:19;;;;;;;14.65;5.50;;;24.20;99.90;;;;;;4954257;29;20126;-75
2023/06/07 13:11:46;;;;;;;11.02;4.60;;;24.20;99.90;;;;;;4956273;28;20054;-76
2023/06/07 13:14:12;;;;;;;9.90;5.00;;;24.20;99.90;;;;;;4956002;28;20171;-77
2023/06/07 13:16:38;;;;;;;9.23;5.40;;;24.40;99.90;;;;;;4955936;28;20076;-77
2023/06/07 13:19:03;;;;;;;12.93;4.68;;;24.20;99.90;;;;;;4954535;29;20079;-76
2023/06/07 13:21:30;;;;;;;11.50;4.57;;;24.20;99.90;;;;;;4954440;29;20329;-75
2023/06/07 13:23:55;;;;;;;10.23;4.60;;;24.20;99.90;;;;;;4955929;28;20464;-77
2023/06/07 13:26:22;;;;;;;17.13;5.20;;;24.10;99.90;;;;;;4955708;28;20048;-76
2023/06/07 13:28:48;;;;;;;10.48;4.80;;;24.00;99.90;;;;;;4955945;28;20047;-76
2023/06/07 13:31:15;;;;;;;9.07;4.40;;;24.00;99.90;;;;;;4954402;29;20046;-76
2023/06/07 13:33:41;;;;;;;12.40;5.13;;;24.10;99.90;;;;;;4954411;29;20057;-77
2023/06/07 13:36:07;;;;;;;12.35;4.82;;;24.30;99.90;;;;;;4954673;29;20130;-77
2023/06/07 13:38:33;;;;;;;8.35;4.53;;;24.50;99.90;;;;;;4955718;28;20091;-76
2023/06/07 13:41:00;;;;;;;16.77;5.00;;;24.60;99.90;;;;;;4954148;29;20043;-77
2023/06/07 13:43:26;;;;;;;12.27;5.03;;;24.60;99.90;;;;;;4958376;28;20123;-76
2023/06/07 13:45:52;;;;;;;10.32;5.03;;;24.70;99.90;;;;;;4959614;28;20035;-75
2023/06/07 13:48:19;;;;;;;10.80;4.40;;;24.70;99.90;;;;;;4959245;28;20067;-76
2023/06/07 13:50:48;;;;;;;12.35;4.80;;;24.70;99.90;;;;;;4958040;29;20080;-76
2023/06/07 13:53:13;;;;;;;9.85;4.50;;;24.80;99.90;;;;;;4959322;28;20102;-75
2023/06/07 13:55:39;;;;;;;13.15;4.97;;;24.70;99.90;;;;;;4957421;29;20439;-76
2023/06/07 13:58:04;;;;;;;12.15;4.70;;;24.70;99.90;;;;;;4958096;29;20499;-76
2023/06/07 14:00:30;;;;;;;9.77;4.40;;;24.60;99.90;;;;;;4957399;29;20126;-75
2023/06/07 14:02:56;;;;;;;14.07;5.00;;;24.60;99.90;;;;;;4941505;29;20122;-76
2023/06/07 14:05:22;;;;;;;13.43;4.95;;;24.50;99.90;;;;;;4958835;28;20031;-76
2023/06/07 14:07:47;;;;;;;10.55;4.18;;;24.50;99.90;;;;;;4957421;29;20043;-76
2023/06/07 14:10:15;;;;;;;13.55;5.07;;;24.50;99.90;;;;;;4957414;29;20043;-75
2023/06/07 14:12:42;;;;;;;9.45;4.07;;;24.50;99.90;;;;;;4958538;28;20067;-75
2023/06/07 14:15:08;;;;;;;10.85;4.40;;;24.50;99.90;;;;;;4957452;29;20054;-77
2023/06/07 14:17:34;;;;;;;10.25;4.70;;;24.60;99.90;;;;;;4958296;28;20047;-75
2023/06/07 14:20:00;;;;;;;12.63;4.82;;;24.60;99.90;;;;;;4957205;29;20372;-76
2023/06/07 14:22:25;;;;;;;12.27;4.38;;;24.50;99.90;;;;;;4957097;29;20050;-76
2023/06/07 14:24:51;;;;;;;10.05;4.38;;;24.50;99.90;;;;;;4958445;28;20031;-75
2023/06/07 14:27:16;;;;;;;11.55;4.32;;;24.50;99.90;;;;;;4957449;29;20054;-76
2023/06/07 14:29:42;;;;;;;12.25;4.70;;;24.50;99.90;;;;;;4958594;28;20070;-77
2023/06/07 14:32:08;;;;;;;12.73;4.57;;;24.50;99.70;;;;;;4956907;29;20125;-75
2023/06/07 14:34:34;;;;;;;10.27;4.65;;;24.50;99.80;;;;;;4956933;29;20106;-74
2023/06/07 14:37:00;;;;;;;10.07;4.65;;;24.50;99.90;;;;;;4958146;28;20035;-75
2023/06/07 14:39:26;;;;;;;13.38;5.07;;;24.50;99.90;;;;;;4958368;28;20062;-76
2023/06/07 14:41:52;;;;;;;11.65;4.35;;;24.40;99.70;;;;;;4956470;29;20073;-76
2023/06/07 14:44:19;;;;;;;8.27;4.50;;;24.30;99.70;;;;;;4957835;28;20043;-76
2023/06/07 14:46:45;;;;;;;9.15;4.45;;;24.30;99.80;;;;;;4956630;29;20058;-76
2023/06/07 14:49:10;;;;;;;10.75;4.50;;;24.30;99.60;;;;;;4958030;28;20039;-75
2023/06/07 14:51:36;;;;;;;12.85;4.95;;;24.30;99.70;;;;;;4940532;29;20058;-76
2023/06/07 14:54:02;;;;;;;10.30;4.95;;;24.30;99.80;;;;;;4955936;28;20043;-75
2023/06/07 14:56:27;;;;;;;13.20;4.95;;;24.40;99.90;;;;;;4956321;29;20077;-76
2023/06/07 14:58:53;;;;;;;11.30;4.18;;;24.40;99.90;;;;;;4957793;28;20042;-76
2023/06/07 15:01:19;;;;;;;13.80;5.05;;;24.40;99.90;;;;;;4955794;29;20078;-75
2023/06/07 15:03:45;;;;;;;10.90;4.45;;;24.40;99.60;;;;;;4955843;29;20039;-75
2023/06/07 15:06:10;;;;;;;10.90;4.60;;;24.50;99.40;;;;;;4957633;28;20071;-76
2023/06/07 15:08:37;;;;;;;10.85;3.85;;;24.40;99.50;;;;;;4956259;29;20043;-75
2023/06/07 15:11:03;;;;;;;10.88;4.22;;;24.30;99.70;;;;;;4956147;29;20047;-75
2023/06/07 15:13:28;;;;;;;13.38;4.15;;;24.30;99.50;;;;;;4957365;28;20111;-76
2023/06/07 15:15:54;;;;;;;12.57;4.18;;;24.30;99.50;;;;;;4956408;29;20054;-76
2023/06/07 15:18:20;;;;;;;12.90;4.47;;;24.30;99.90;;;;;;4957255;28;20550;-77
2023/06/07 15:20:46;;;;;;;10.93;4.32;;;24.20;99.90;;;;;;4955981;29;20122;-75
2023/06/07 15:23:12;;;;;;;14.43;5.05;;;24.20;99.50;;;;;;4956083;29;20039;-76
2023/06/07 15:25:38;;;;;;;15.40;4.63;;;24.10;99.40;;;;;;4955609;29;20039;-76
2023/06/07 15:28:03;;;;;;;9.90;3.92;;;24.00;99.30;;;;;;4955793;29;20042;-76
2023/06/07 15:30:30;;;;;;;11.95;4.20;;;23.90;99.20;;;;;;4955716;29;20046;-76
2023/06/07 15:32:56;;;;;;;14.07;4.50;;;23.80;99.30;;;;;;4956195;29;20038;-77
2023/06/07 15:35:21;;;;;;;14.00;4.40;;;23.70;99.20;;;;;;4955936;29;20090;-77
2023/06/07 15:37:47;;;;;;;10.02;4.25;;;23.70;99.40;;;;;;4957395;28;20035;-76
2023/06/07 15:40:12;;;;;;;9.60;4.05;;;23.70;99.40;;;;;;4955872;29;20039;-75